createdAt,value
2023-06-19T00:00:43.865Z,16.600
2023-06-19T00:01:44.625Z,16.900
2023-06-19T00:03:44.248Z,17.600
2023-06-19T00:04:43.835Z,16.000
2023-06-19T00:05:44.294Z,16.100
2023-06-19T00:06:43.797Z,15.900
2023-06-19T00:07:44.205Z,15.900
2023-06-19T00:08:43.621Z,16.500
2023-06-19T00:09:43.980Z,16.300
2023-06-19T00:10:44.455Z,15.900
2023-06-19T00:11:43.820Z,15.400
2023-06-19T00:12:44.313Z,16.400
2023-06-19T00:14:44.166Z,16.400
2023-06-19T00:15:43.651Z,16.700
2023-06-19T00:16:44.488Z,15.400
2023-06-19T00:17:44.265Z,16.700
2023-06-19T00:18:43.766Z,16.000
2023-06-19T00:19:44.183Z,15.700
2023-06-19T00:22:43.495Z,15.800
2023-06-19T00:23:44.015Z,14.800
2023-06-19T00:24:45.300Z,15.500
2023-06-19T00:25:43.741Z,15.700
2023-06-19T00:26:44.135Z,17.500
2023-06-19T00:27:43.564Z,17.200
2023-06-19T00:28:43.975Z,16.500
2023-06-19T00:29:44.351Z,16.300
2023-06-19T00:30:43.780Z,16.500
2023-06-19T00:31:44.212Z,19.400
2023-06-19T00:33:43.668Z,15.700
2023-06-19T00:34:44.133Z,17.500
2023-06-19T00:35:43.624Z,17.100
2023-06-19T00:36:44.439Z,16.100
2023-06-19T00:37:43.909Z,16.500
2023-06-19T00:38:44.379Z,15.600
2023-06-19T00:39:47.425Z,18.100
2023-06-19T00:40:43.799Z,17.900
2023-06-19T00:41:44.216Z,15.600
2023-06-19T00:42:43.645Z,15.400
2023-06-19T00:43:44.018Z,16.200
2023-06-19T00:44:44.464Z,15.600
2023-06-19T00:45:44.026Z,15.900
2023-06-19T00:46:44.645Z,15.200
2023-06-19T00:47:44.287Z,16.100
2023-06-19T00:48:43.777Z,15.300
2023-06-19T00:49:44.261Z,15.000
2023-06-19T00:50:43.728Z,15.900
2023-06-19T00:51:44.198Z,14.800
2023-06-19T00:52:43.688Z,17.500
2023-06-19T00:53:44.035Z,17.800
2023-06-19T00:54:44.460Z,16.400
2023-06-19T00:55:43.927Z,16.000
2023-06-19T00:56:44.346Z,15.900
2023-06-19T00:57:43.782Z,15.500
2023-06-19T00:58:44.219Z,15.900
2023-06-19T00:59:43.675Z,16.100
2023-06-19T01:00:59.744Z,15.600
2023-06-19T01:01:43.894Z,17.000
2023-06-19T01:02:45.312Z,15.600
2023-06-19T01:03:44.791Z,15.900
2023-06-19T01:04:44.161Z,16.500
2023-06-19T01:05:43.621Z,16.200
2023-06-19T01:06:44.014Z,15.700
2023-06-19T01:07:44.551Z,16.200
2023-06-19T01:08:44.035Z,17.300
2023-06-19T01:09:44.447Z,16.300
2023-06-19T01:10:43.822Z,16.100
2023-06-19T01:11:44.238Z,15.400
2023-06-19T01:12:43.655Z,15.900
2023-06-19T01:13:44.150Z,16.800
2023-06-19T01:14:43.651Z,15.700
2023-06-19T01:15:44.336Z,16.800
2023-06-19T01:16:44.047Z,16.300
2023-06-19T01:17:44.041Z,16.700
2023-06-19T01:18:44.531Z,18.700
2023-06-19T01:19:43.861Z,17.200
2023-06-19T01:20:44.340Z,18.400
2023-06-19T01:21:43.779Z,16.000
2023-06-19T01:22:44.322Z,15.900
2023-06-19T01:23:43.780Z,17.600
2023-06-19T01:24:44.840Z,16.200
2023-06-19T01:25:44.459Z,15.300
2023-06-19T01:26:43.862Z,16.100
2023-06-19T01:27:44.362Z,16.200
2023-06-19T01:29:44.204Z,16.500
2023-06-19T01:30:43.721Z,18.700
2023-06-19T01:31:44.224Z,16.500
2023-06-19T01:32:43.867Z,15.800
2023-06-19T01:33:44.352Z,16.900
2023-06-19T01:34:46.824Z,17.300
2023-06-19T01:35:44.227Z,17.300
2023-06-19T01:36:43.665Z,17.100
2023-06-19T01:37:44.392Z,15.400
2023-06-19T01:38:43.883Z,16.700
2023-06-19T01:39:44.279Z,16.800
2023-06-19T01:40:43.664Z,16.700
2023-06-19T01:41:44.071Z,17.900
2023-06-19T01:42:43.504Z,17.100
2023-06-19T01:43:43.929Z,16.500
2023-06-19T01:44:44.369Z,17.200
2023-06-19T01:45:43.776Z,16.400
2023-06-19T01:46:44.484Z,16.800
2023-06-19T01:47:44.528Z,16.700
2023-06-19T01:48:44.074Z,17.000
2023-06-19T01:49:43.500Z,18.400
2023-06-19T01:50:43.979Z,18.600
2023-06-19T01:51:44.371Z,16.700
2023-06-19T01:52:43.795Z,17.500
2023-06-19T01:53:44.270Z,16.800
2023-06-19T01:54:43.652Z,17.300
2023-06-19T01:55:44.093Z,16.300
2023-06-19T01:57:44.090Z,17.700
2023-06-19T01:58:44.464Z,15.900
2023-06-19T01:59:43.917Z,16.400
2023-06-19T02:00:44.349Z,16.100
2023-06-19T02:01:43.831Z,16.400
2023-06-19T02:02:44.720Z,15.800
2023-06-19T02:03:45.195Z,16.800
2023-06-19T02:04:43.850Z,15.500
2023-06-19T02:05:44.249Z,16.600
2023-06-19T02:06:43.719Z,17.600
2023-06-19T02:07:44.127Z,17.300
2023-06-19T02:08:43.508Z,19.000
2023-06-19T02:09:44.005Z,18.900
2023-06-19T02:10:44.450Z,16.600
2023-06-19T02:12:44.226Z,16.800
2023-06-19T02:13:45.891Z,17.900
2023-06-19T02:14:44.312Z,18.000
2023-06-19T02:17:44.280Z,17.600
2023-06-19T02:18:43.765Z,18.400
2023-06-19T02:19:44.249Z,16.900
2023-06-19T02:20:43.624Z,18.800
2023-06-19T02:21:44.005Z,18.900
2023-06-19T02:22:43.632Z,17.100
2023-06-19T02:23:44.096Z,16.200
2023-06-19T02:24:43.981Z,16.400
2023-06-19T02:25:44.373Z,17.200
2023-06-19T02:26:43.791Z,18.900
2023-06-19T02:27:44.222Z,17.700
2023-06-19T02:28:43.682Z,18.800
2023-06-19T02:29:44.086Z,17.100
2023-06-19T02:31:43.916Z,16.900
2023-06-19T02:32:44.696Z,16.800
2023-06-19T02:33:44.302Z,16.900
2023-06-19T02:34:43.660Z,17.200
2023-06-19T02:35:44.065Z,17.200
2023-06-19T02:36:43.454Z,17.700
2023-06-19T02:37:43.921Z,17.700
2023-06-19T02:38:44.380Z,17.800
2023-06-19T02:39:43.810Z,16.800
2023-06-19T02:40:44.317Z,18.900
2023-06-19T02:41:43.709Z,21.000
2023-06-19T02:42:44.092Z,16.700
2023-06-19T02:43:43.529Z,19.700
2023-06-19T02:44:44.052Z,18.600
2023-06-19T02:45:44.767Z,17.200
2023-06-19T02:46:44.179Z,17.600
2023-06-19T02:47:43.802Z,16.500
2023-06-19T02:48:44.229Z,19.100
2023-06-19T02:49:43.667Z,18.200
2023-06-19T02:50:44.150Z,18.000
2023-06-19T02:51:47.458Z,17.600
2023-06-19T02:53:44.283Z,18.200
2023-06-19T02:54:43.794Z,17.000
2023-06-19T02:55:44.385Z,17.400
2023-06-19T02:56:43.809Z,17.600
2023-06-19T02:57:44.138Z,19.500
2023-06-19T02:58:43.571Z,17.400
2023-06-19T02:59:44.103Z,18.200
2023-06-19T03:00:43.563Z,17.200
2023-06-19T03:01:44.358Z,19.400
2023-06-19T03:02:44.433Z,17.100
2023-06-19T03:03:44.915Z,16.700
2023-06-19T03:04:43.577Z,17.900
2023-06-19T03:05:44.029Z,17.500
2023-06-19T03:06:44.491Z,17.200
2023-06-19T03:07:43.900Z,18.000
2023-06-19T03:08:44.390Z,19.300
2023-06-19T03:09:43.833Z,17.700
2023-06-19T03:10:44.337Z,17.100
2023-06-19T03:11:43.756Z,18.300
2023-06-19T03:12:44.213Z,18.000
2023-06-19T03:13:43.773Z,18.700
2023-06-19T03:14:44.282Z,17.300
2023-06-19T03:15:43.718Z,19.200
2023-06-19T03:16:44.370Z,17.700
2023-06-19T03:18:43.693Z,18.500
2023-06-19T03:19:44.228Z,18.900
2023-06-19T03:20:43.688Z,16.800
2023-06-19T03:21:44.229Z,17.300
2023-06-19T03:22:43.681Z,17.400
2023-06-19T03:23:44.112Z,19.300
2023-06-19T03:24:44.019Z,18.000
2023-06-19T03:25:43.698Z,16.000
2023-06-19T03:26:44.026Z,18.800
2023-06-19T03:27:44.454Z,17.300
2023-06-19T03:28:43.895Z,17.700
2023-06-19T03:29:44.225Z,17.200
2023-06-19T03:30:44.020Z,18.600
2023-06-19T03:31:44.412Z,17.400
2023-06-19T03:32:44.742Z,19.400
2023-06-19T03:33:44.374Z,17.100
2023-06-19T03:34:43.975Z,17.700
2023-06-19T03:35:45.294Z,17.900
2023-06-19T03:36:43.705Z,17.400
2023-06-19T03:37:44.206Z,17.100
2023-06-19T03:38:43.616Z,17.800
2023-06-19T03:39:44.105Z,18.700
2023-06-19T03:40:44.338Z,17.000
2023-06-19T03:41:43.846Z,18.500
2023-06-19T03:42:44.328Z,16.600
2023-06-19T03:43:43.768Z,18.500
2023-06-19T03:44:44.164Z,17.100
2023-06-19T03:45:43.637Z,17.400
2023-06-19T03:46:44.442Z,16.900
2023-06-19T03:47:44.550Z,16.500
2023-06-19T03:48:44.038Z,18.800
2023-06-19T03:49:44.433Z,16.500
2023-06-19T03:50:45.017Z,18.700
2023-06-19T03:51:43.683Z,17.900
2023-06-19T03:52:44.173Z,18.300
2023-06-19T03:53:43.638Z,17.100
2023-06-19T03:54:44.161Z,17.800
2023-06-19T03:55:43.583Z,17.300
2023-06-19T03:56:44.028Z,18.000
2023-06-19T03:57:44.464Z,17.800
2023-06-19T03:58:43.935Z,16.800
2023-06-19T03:59:44.481Z,17.900
2023-06-19T04:00:43.965Z,17.400
2023-06-19T04:01:44.705Z,17.400
2023-06-19T04:02:44.349Z,16.600
2023-06-19T04:03:45.259Z,20.100
2023-06-19T04:04:43.816Z,17.800
2023-06-19T04:05:44.233Z,19.400
2023-06-19T04:08:44.728Z,19.600
2023-06-19T04:09:44.228Z,17.400
2023-06-19T04:10:43.642Z,19.000
2023-06-19T04:11:44.097Z,17.000
2023-06-19T04:12:43.534Z,17.200
2023-06-19T04:13:43.953Z,17.800
2023-06-19T04:14:44.442Z,17.000
2023-06-19T04:15:44.281Z,17.100
2023-06-19T04:16:43.864Z,16.900
2023-06-19T04:17:44.584Z,18.700
2023-06-19T04:18:44.010Z,17.300
2023-06-19T04:19:44.412Z,16.700
2023-06-19T04:20:43.810Z,17.100
2023-06-19T04:21:44.277Z,18.300
2023-06-19T04:22:43.784Z,19.000
2023-06-19T04:23:44.234Z,17.100
2023-06-19T04:24:43.961Z,16.400
2023-06-19T04:25:44.449Z,17.800
2023-06-19T04:26:43.867Z,16.100
2023-06-19T04:27:44.387Z,17.300
2023-06-19T04:28:43.733Z,17.000
2023-06-19T04:29:44.255Z,17.700
2023-06-19T04:30:43.691Z,16.500
2023-06-19T04:31:47.447Z,17.300
2023-06-19T04:32:45.135Z,16.300
2023-06-19T04:33:44.565Z,16.400
2023-06-19T04:34:44.043Z,17.600
2023-06-19T04:37:44.522Z,17.200
2023-06-19T04:38:43.939Z,17.800
2023-06-19T04:39:44.578Z,17.300
2023-06-19T04:40:44.011Z,17.500
2023-06-19T04:41:44.368Z,17.400
2023-06-19T04:42:43.878Z,16.700
2023-06-19T04:43:44.308Z,17.400
2023-06-19T04:44:43.710Z,18.300
2023-06-19T04:45:44.108Z,17.400
2023-06-19T04:46:44.206Z,17.700
2023-06-19T04:47:58.506Z,19.000
2023-06-19T04:49:44.520Z,18.000
2023-06-19T04:50:43.949Z,16.300
2023-06-19T04:51:44.441Z,19.300
2023-06-19T04:52:44.212Z,19.200
2023-06-19T04:53:43.584Z,20.300
2023-06-19T04:54:44.003Z,17.700
2023-06-19T04:55:44.396Z,17.500
2023-06-19T04:56:43.843Z,16.600
2023-06-19T04:57:44.309Z,19.400
2023-06-19T04:58:43.926Z,18.500
2023-06-19T04:59:44.418Z,18.000
2023-06-19T05:00:43.813Z,17.900
2023-06-19T05:01:44.659Z,18.100
2023-06-19T05:02:44.262Z,18.600
2023-06-19T05:03:44.004Z,18.400
2023-06-19T05:04:45.077Z,17.400
2023-06-19T05:05:43.628Z,18.000
2023-06-19T05:06:44.097Z,18.000
2023-06-19T05:07:43.558Z,17.800
2023-06-19T05:08:44.063Z,17.500
2023-06-19T05:09:44.506Z,17.100
2023-06-19T05:11:44.441Z,17.800
2023-06-19T05:12:43.876Z,18.300
2023-06-19T05:13:44.396Z,17.900
2023-06-19T05:14:43.876Z,19.100
2023-06-19T05:15:44.772Z,18.200
2023-06-19T05:16:49.292Z,17.900
2023-06-19T05:17:44.305Z,18.200
2023-06-19T05:19:44.451Z,18.700
2023-06-19T05:20:43.801Z,18.000
2023-06-19T05:21:44.305Z,16.600
2023-06-19T05:22:43.799Z,17.900
2023-06-19T05:23:44.252Z,18.300
2023-06-19T05:24:44.304Z,18.900
2023-06-19T05:25:43.709Z,18.600
2023-06-19T05:26:44.132Z,17.900
2023-06-19T05:27:43.531Z,17.000
2023-06-19T05:28:43.956Z,17.100
2023-06-19T05:29:44.396Z,19.000
2023-06-19T05:30:43.836Z,17.700
2023-06-19T05:31:44.191Z,16.700
2023-06-19T05:33:44.524Z,19.800
2023-06-19T05:34:43.983Z,18.000
2023-06-19T05:35:44.387Z,17.300
2023-06-19T05:36:43.951Z,16.800
2023-06-19T05:37:43.539Z,16.300
2023-06-19T05:38:44.072Z,16.800
2023-06-19T05:39:44.587Z,16.900
2023-06-19T05:40:44.037Z,16.700
2023-06-19T05:41:44.541Z,17.300
2023-06-19T05:42:44.422Z,17.700
2023-06-19T05:43:43.792Z,16.300
2023-06-19T05:44:44.177Z,18.000
2023-06-19T05:45:43.806Z,17.200
2023-06-19T05:46:44.457Z,17.000
2023-06-19T05:47:44.299Z,18.200
2023-06-19T05:48:43.779Z,17.500
2023-06-19T05:49:44.282Z,17.500
2023-06-19T05:50:43.676Z,16.700
2023-06-19T05:51:44.213Z,16.900
2023-06-19T05:53:43.502Z,18.200
2023-06-19T05:54:44.023Z,16.800
2023-06-19T05:55:43.635Z,16.700
2023-06-19T05:56:44.036Z,18.600
2023-06-19T05:57:44.493Z,17.100
2023-06-19T05:58:43.969Z,16.800
2023-06-19T05:59:44.401Z,18.100
2023-06-19T06:00:43.863Z,17.800
2023-06-19T06:01:44.638Z,18.200
2023-06-19T06:02:44.273Z,18.600
2023-06-19T06:03:43.825Z,17.200
2023-06-19T06:04:44.618Z,17.200
2023-06-19T06:05:44.286Z,17.800
2023-06-19T06:06:43.671Z,17.500
2023-06-19T06:07:49.741Z,18.000
2023-06-19T06:09:43.855Z,17.400
2023-06-19T06:10:44.415Z,18.200
2023-06-19T06:11:43.804Z,17.900
2023-06-19T06:12:44.204Z,18.900
2023-06-19T06:13:43.600Z,18.000
2023-06-19T06:14:44.125Z,18.200
2023-06-19T06:15:43.532Z,17.000
2023-06-19T06:16:44.281Z,19.800
2023-06-19T06:17:43.820Z,18.100
2023-06-19T06:18:44.416Z,17.500
2023-06-19T06:19:43.863Z,17.000
2023-06-19T06:20:44.248Z,17.100
2023-06-19T06:21:43.683Z,16.500
2023-06-19T06:22:44.139Z,17.100
2023-06-19T06:23:43.672Z,16.200
2023-06-19T06:24:44.708Z,15.800
2023-06-19T06:25:44.156Z,15.800
2023-06-19T06:26:44.027Z,16.500
2023-06-19T06:27:43.553Z,16.100
2023-06-19T06:28:44.141Z,16.000
2023-06-19T06:29:43.593Z,16.000
2023-06-19T06:30:44.088Z,16.200
2023-06-19T06:31:43.515Z,16.500
2023-06-19T06:32:44.254Z,16.200
2023-06-19T06:33:43.728Z,15.600
2023-06-19T06:34:44.168Z,16.100
2023-06-19T06:35:43.648Z,15.600
2023-06-19T06:37:06.367Z,15.700
2023-06-19T06:38:43.724Z,15.900
2023-06-19T06:39:44.132Z,14.400
2023-06-19T06:40:43.565Z,14.400
2023-06-19T06:41:44.183Z,15.100
2023-06-19T06:42:43.750Z,14.300
2023-06-19T06:43:44.252Z,15.200
2023-06-19T06:44:43.630Z,14.200
2023-06-19T06:45:44.368Z,13.100
2023-06-19T06:46:43.823Z,13.100
2023-06-19T06:47:44.478Z,12.600
2023-06-19T06:48:44.025Z,13.200
2023-06-19T06:49:44.492Z,13.100
2023-06-19T06:50:44.107Z,13.500
2023-06-19T06:51:43.562Z,12.700
2023-06-19T06:52:44.065Z,12.600
2023-06-19T06:53:44.570Z,12.900
2023-06-19T06:54:43.969Z,12.800
2023-06-19T06:55:44.860Z,12.500
2023-06-19T06:56:44.263Z,12.500
2023-06-19T06:57:43.694Z,12.800
2023-06-19T06:58:44.121Z,11.600
2023-06-19T06:59:43.524Z,12.400
2023-06-19T07:00:44.137Z,10.900
2023-06-19T07:03:44.191Z,11.300
2023-06-19T07:04:43.679Z,10.100
2023-06-19T07:05:44.195Z,11.300
2023-06-19T07:06:43.689Z,10.800
2023-06-19T07:07:44.058Z,9.900
2023-06-19T07:08:44.544Z,10.200
2023-06-19T07:09:44.069Z,9.700
2023-06-19T07:10:44.696Z,9.400
2023-06-19T07:11:44.188Z,9.200
2023-06-19T07:12:44.246Z,9.500
2023-06-19T07:14:44.209Z,10.000
2023-06-19T07:15:43.752Z,9.400
2023-06-19T07:16:44.635Z,9.400
2023-06-19T07:18:44.107Z,10.500
2023-06-19T07:19:43.547Z,11.600
2023-06-19T07:20:44.004Z,10.000
2023-06-19T07:21:44.451Z,8.500
2023-06-19T07:22:43.848Z,8.500
2023-06-19T07:23:46.049Z,8.600
2023-06-19T07:24:44.324Z,9.400
2023-06-19T07:25:43.801Z,8.900
2023-06-19T07:26:44.299Z,8.900
2023-06-19T07:27:43.915Z,9.100
2023-06-19T07:28:44.336Z,8.200
2023-06-19T07:29:43.675Z,8.100
2023-06-19T07:30:45.201Z,9.600
2023-06-19T07:31:45.285Z,9.200
2023-06-19T07:32:45.394Z,8.500
2023-06-19T07:33:45.186Z,8.000
2023-06-19T07:35:44.052Z,8.400
2023-06-19T07:36:43.619Z,7.600
2023-06-19T07:37:44.286Z,8.500
2023-06-19T07:38:43.719Z,8.100
2023-06-19T07:39:44.237Z,8.500
2023-06-19T07:40:43.855Z,8.100
2023-06-19T07:41:44.317Z,7.600
2023-06-19T07:42:47.124Z,7.800
2023-06-19T07:43:43.628Z,7.400
2023-06-19T07:44:44.303Z,8.300
2023-06-19T07:45:43.974Z,7.700
2023-06-19T07:46:44.025Z,7.800
2023-06-19T07:47:44.777Z,7.200
2023-06-19T07:48:44.362Z,7.800
2023-06-19T07:49:43.857Z,7.700
2023-06-19T07:50:44.912Z,7.700
2023-06-19T07:51:44.277Z,7.700
2023-06-19T07:52:43.725Z,7.300
2023-06-19T07:53:44.152Z,7.900
2023-06-19T07:54:43.616Z,7.100
2023-06-19T07:55:44.212Z,7.600
2023-06-19T07:56:43.708Z,7.400
2023-06-19T07:57:44.179Z,7.600
2023-06-19T07:58:43.595Z,7.600
2023-06-19T07:59:44.052Z,7.600
2023-06-19T08:00:43.721Z,8.000
2023-06-19T08:01:44.200Z,7.200
2023-06-19T08:02:44.324Z,7.500
2023-06-19T08:03:44.759Z,8.400
2023-06-19T08:04:43.806Z,7.500
2023-06-19T08:05:44.375Z,7.400
2023-06-19T08:06:43.826Z,8.200
2023-06-19T08:07:44.261Z,8.100
2023-06-19T08:10:44.983Z,7.900
2023-06-19T08:11:44.414Z,7.900
2023-06-19T08:14:43.886Z,8.600
2023-06-19T08:15:44.416Z,8.700
2023-06-19T08:16:44.071Z,8.300
2023-06-19T08:17:43.784Z,7.400
2023-06-19T08:18:44.381Z,8.000
2023-06-19T08:19:43.798Z,7.600
2023-06-19T08:20:44.273Z,7.600
2023-06-19T08:21:43.713Z,8.200
2023-06-19T08:22:44.267Z,8.700
2023-06-19T08:23:43.917Z,8.100
2023-06-19T08:24:44.819Z,8.000
2023-06-19T08:25:44.258Z,7.100
2023-06-19T08:26:43.748Z,7.200
2023-06-19T08:27:44.286Z,7.600
2023-06-19T08:28:43.736Z,7.400
2023-06-19T08:30:44.147Z,7.100
2023-06-19T08:31:43.610Z,7.400
2023-06-19T08:32:44.348Z,7.900
2023-06-19T08:33:43.965Z,6.900
2023-06-19T08:34:44.431Z,6.900
2023-06-19T08:35:43.891Z,6.200
2023-06-19T08:36:44.348Z,6.700
2023-06-19T08:37:43.761Z,6.600
2023-06-19T08:38:44.219Z,6.300
2023-06-19T08:39:43.698Z,6.800
2023-06-19T08:40:44.159Z,6.600
2023-06-19T08:41:43.678Z,6.500
2023-06-19T08:42:44.088Z,6.600
2023-06-19T08:43:43.488Z,7.400
2023-06-19T08:44:44.915Z,7.000
2023-06-19T08:45:44.441Z,6.700
2023-06-19T08:46:44.666Z,6.400
2023-06-19T08:47:44.797Z,6.800
2023-06-19T08:48:44.240Z,5.700
2023-06-19T08:49:43.700Z,6.200
2023-06-19T08:50:44.145Z,6.600
2023-06-19T08:51:43.523Z,6.200
2023-06-19T08:52:43.949Z,6.700
2023-06-19T08:53:44.441Z,6.000
2023-06-19T08:54:43.915Z,6.800
2023-06-19T08:55:44.406Z,6.800
2023-06-19T08:57:43.713Z,6.900
2023-06-19T08:58:44.156Z,6.500
2023-06-19T08:59:43.630Z,5.900
2023-06-19T09:00:44.913Z,6.700
2023-06-19T09:01:44.389Z,7.300
2023-06-19T09:02:44.356Z,7.000
2023-06-19T09:03:44.702Z,6.900
2023-06-19T09:05:47.566Z,6.400
2023-06-19T09:06:44.762Z,6.600
2023-06-19T09:07:44.608Z,6.300
2023-06-19T09:10:44.174Z,5.600
2023-06-19T09:11:43.567Z,6.800
2023-06-19T09:12:43.996Z,7.100
2023-06-19T09:13:44.393Z,6.800
2023-06-19T09:14:44.007Z,6.500
2023-06-19T09:15:44.528Z,6.500
2023-06-19T09:16:43.939Z,7.000
2023-06-19T09:17:44.589Z,7.100
2023-06-19T09:18:43.988Z,7.100
2023-06-19T09:19:44.690Z,6.500
2023-06-19T09:20:44.249Z,6.200
2023-06-19T09:21:43.677Z,7.400
2023-06-19T09:22:45.029Z,7.300
2023-06-19T09:23:44.520Z,6.300
2023-06-19T09:24:45.291Z,7.100
2023-06-19T09:25:44.344Z,7.300
2023-06-19T09:26:43.856Z,6.400
2023-06-19T09:27:44.328Z,5.900
2023-06-19T09:29:44.302Z,6.300
2023-06-19T09:30:43.744Z,6.200
2023-06-19T09:31:44.255Z,6.600
2023-06-19T09:32:43.915Z,6.600
2023-06-19T09:33:44.735Z,6.600
2023-06-19T09:34:45.827Z,6.000
2023-06-19T09:35:43.847Z,6.800
2023-06-19T09:36:44.469Z,6.000
2023-06-19T09:37:44.037Z,6.400
2023-06-19T09:38:45.051Z,6.500
2023-06-19T09:39:43.733Z,6.000
2023-06-19T09:40:44.373Z,6.000
2023-06-19T09:41:44.380Z,5.400
2023-06-19T09:44:52.547Z,5.900
2023-06-19T09:45:43.915Z,6.400
2023-06-19T09:46:44.609Z,6.400
2023-06-19T09:47:46.413Z,6.000
2023-06-19T09:48:44.421Z,5.700
2023-06-19T09:49:43.872Z,5.800
2023-06-19T09:50:44.283Z,6.500
2023-06-19T09:52:44.121Z,6.300
2023-06-19T09:53:43.518Z,5.900
2023-06-19T09:54:44.372Z,6.400
2023-06-19T09:55:43.792Z,6.800
2023-06-19T09:56:44.306Z,5.900
2023-06-19T09:57:43.780Z,6.100
2023-06-19T09:58:44.234Z,5.800
2023-06-19T09:59:43.655Z,5.900
2023-06-19T10:00:44.229Z,6.300
2023-06-19T10:01:44.062Z,5.700
2023-06-19T10:02:44.002Z,5.400
2023-06-19T10:03:44.215Z,6.200
2023-06-19T10:04:43.770Z,6.100
2023-06-19T10:05:44.296Z,6.600
2023-06-19T10:07:44.601Z,6.000
2023-06-19T10:08:44.026Z,6.100
2023-06-19T10:09:44.474Z,6.200
2023-06-19T10:10:43.845Z,6.200
2023-06-19T10:11:44.338Z,6.400
2023-06-19T10:12:43.810Z,6.400
2023-06-19T10:13:44.298Z,6.400
2023-06-19T10:14:43.737Z,5.400
2023-06-19T10:15:44.202Z,5.800
2023-06-19T10:17:44.613Z,5.500
2023-06-19T10:18:44.113Z,5.900
2023-06-19T10:19:43.563Z,5.900
2023-06-19T10:20:51.904Z,5.600
2023-06-19T10:22:44.259Z,6.100
2023-06-19T10:23:44.306Z,6.400
2023-06-19T10:24:44.313Z,5.500
2023-06-19T10:27:47.007Z,6.400
2023-06-19T10:29:56.853Z,6.300
2023-06-19T10:30:44.732Z,6.400
2023-06-19T10:31:44.222Z,5.900
2023-06-19T10:32:43.843Z,6.100
2023-06-19T10:33:44.636Z,6.000
2023-06-19T10:34:44.696Z,6.000
2023-06-19T10:36:43.693Z,5.600
2023-06-19T10:37:44.190Z,5.700
2023-06-19T10:38:43.568Z,5.300
2023-06-19T10:39:44.097Z,5.800
2023-06-19T10:40:43.513Z,5.800
2023-06-19T10:41:43.939Z,5.500
2023-06-19T10:42:44.430Z,5.500
2023-06-19T10:43:43.940Z,6.300
2023-06-19T10:44:44.373Z,5.700
2023-06-19T10:45:44.313Z,6.100
2023-06-19T10:46:44.817Z,5.900
2023-06-19T10:47:44.622Z,6.200
2023-06-19T10:48:44.153Z,5.400
2023-06-19T10:49:43.670Z,6.000
2023-06-19T10:50:44.159Z,7.600
2023-06-19T10:53:43.608Z,6.300
2023-06-19T10:54:44.140Z,6.500
2023-06-19T10:55:47.304Z,6.500
2023-06-19T10:56:43.778Z,6.300
2023-06-19T10:57:44.215Z,5.600
2023-06-19T10:58:43.705Z,6.100
2023-06-19T10:59:44.128Z,6.400
2023-06-19T11:01:44.071Z,6.500
2023-06-19T11:02:43.946Z,6.400
2023-06-19T11:03:44.213Z,6.200
2023-06-19T11:04:43.868Z,6.400
2023-06-19T11:05:44.349Z,6.300
2023-06-19T11:06:45.332Z,6.100
2023-06-19T11:07:43.724Z,6.400
2023-06-19T11:08:44.108Z,6.200
2023-06-19T11:09:47.395Z,6.600
2023-06-19T11:11:44.326Z,5.400
2023-06-19T11:12:43.758Z,6.000
2023-06-19T11:13:44.329Z,6.300
2023-06-19T11:14:43.868Z,5.800
2023-06-19T11:15:44.460Z,6.100
2023-06-19T11:16:44.355Z,5.900
2023-06-19T11:17:44.337Z,6.000
2023-06-19T11:18:43.887Z,6.100
2023-06-19T11:19:44.344Z,5.200
2023-06-19T11:21:44.292Z,5.600
2023-06-19T11:22:43.728Z,6.300
2023-06-19T11:23:44.180Z,5.900
2023-06-19T11:24:44.083Z,5.200
2023-06-19T11:25:43.580Z,6.300
2023-06-19T11:26:44.041Z,5.200
2023-06-19T11:27:44.525Z,5.000
2023-06-19T11:28:45.397Z,5.800
2023-06-19T11:29:43.815Z,5.900
2023-06-19T11:30:44.777Z,5.900
2023-06-19T11:31:43.584Z,5.900
2023-06-19T11:32:44.700Z,5.800
2023-06-19T11:33:44.220Z,6.600
2023-06-19T11:34:43.848Z,5.500
2023-06-19T11:35:44.428Z,5.100
2023-06-19T11:37:43.731Z,5.500
2023-06-19T11:38:44.276Z,5.600
2023-06-19T11:39:43.744Z,5.400
2023-06-19T11:40:44.192Z,4.700
2023-06-19T11:41:43.821Z,4.700
2023-06-19T11:42:44.228Z,5.500
2023-06-19T11:43:43.695Z,5.000
2023-06-19T11:44:46.917Z,4.700
2023-06-19T11:45:44.779Z,5.100
2023-06-19T11:47:44.385Z,4.900
2023-06-19T11:48:50.598Z,5.200
2023-06-19T11:49:44.541Z,5.800
2023-06-19T11:50:43.971Z,6.100
2023-06-19T11:51:44.424Z,6.200
2023-06-19T11:52:43.851Z,6.300
2023-06-19T11:53:44.337Z,6.200
2023-06-19T11:54:43.959Z,6.100
2023-06-19T11:55:47.672Z,6.600
2023-06-19T11:56:44.225Z,5.900
2023-06-19T11:58:43.981Z,6.300
2023-06-19T11:59:44.529Z,6.300
2023-06-19T12:00:43.978Z,6.000
2023-06-19T12:01:44.538Z,6.100
2023-06-19T12:02:44.985Z,6.100
2023-06-19T12:03:49.167Z,6.100
2023-06-19T12:04:44.770Z,5.900
2023-06-19T12:06:44.513Z,6.000
2023-06-19T12:07:43.953Z,5.900
2023-06-19T12:08:44.426Z,5.400
2023-06-19T12:09:43.831Z,5.600
2023-06-19T12:10:44.202Z,5.700
2023-06-19T12:11:43.614Z,5.600
2023-06-19T12:12:44.021Z,5.800
2023-06-19T12:13:44.490Z,5.800
2023-06-19T12:14:43.975Z,5.700
2023-06-19T12:15:46.083Z,5.700
2023-06-19T12:16:43.922Z,5.600
2023-06-19T12:17:44.642Z,5.100
2023-06-19T12:18:44.249Z,6.000
2023-06-19T12:19:43.726Z,5.500
2023-06-19T12:20:44.162Z,5.500
2023-06-19T12:21:51.132Z,5.400
2023-06-19T12:25:44.281Z,6.300
2023-06-19T12:26:44.147Z,5.900
2023-06-19T12:28:44.149Z,5.500
2023-06-19T12:29:43.588Z,5.800
2023-06-19T12:30:44.256Z,5.800
2023-06-19T12:31:43.768Z,5.800
2023-06-19T12:32:44.489Z,5.900
2023-06-19T12:33:44.249Z,5.700
2023-06-19T12:34:43.817Z,5.300
2023-06-19T12:35:44.314Z,5.700
2023-06-19T12:36:43.797Z,5.800
2023-06-19T12:37:44.242Z,5.800
2023-06-19T12:38:43.812Z,5.900
2023-06-19T12:39:44.252Z,6.000
2023-06-19T12:41:44.647Z,6.400
2023-06-19T12:42:44.146Z,5.500
2023-06-19T12:43:43.681Z,6.200
2023-06-19T12:44:44.202Z,6.100
2023-06-19T12:45:43.666Z,5.100
2023-06-19T12:46:45.287Z,6.500
2023-06-19T12:47:44.429Z,5.700
2023-06-19T12:48:43.841Z,5.700
2023-06-19T12:49:44.277Z,5.700
2023-06-19T12:50:43.719Z,6.000
2023-06-19T12:51:44.228Z,6.400
2023-06-19T12:52:43.811Z,6.100
2023-06-19T12:53:44.222Z,6.100
2023-06-19T12:54:43.688Z,5.700
2023-06-19T12:56:01.675Z,5.700
2023-06-19T12:57:43.523Z,5.900
2023-06-19T12:58:44.008Z,5.200
2023-06-19T12:59:44.428Z,5.900
2023-06-19T13:00:43.840Z,6.000
2023-06-19T13:01:44.491Z,5.300
2023-06-19T13:02:44.782Z,5.400
2023-06-19T13:03:45.148Z,5.200
2023-06-19T13:04:43.894Z,4.700
2023-06-19T13:05:44.398Z,5.500
2023-06-19T13:06:43.906Z,5.100
2023-06-19T13:07:44.345Z,5.500
2023-06-19T13:08:43.789Z,5.900
2023-06-19T13:09:44.475Z,4.900
2023-06-19T13:10:45.032Z,5.600
2023-06-19T13:11:44.751Z,5.400
2023-06-19T13:12:44.314Z,5.900
2023-06-19T13:15:44.094Z,4.900
2023-06-19T13:16:52.419Z,5.800
2023-06-19T13:17:44.057Z,5.600
2023-06-19T13:18:44.518Z,6.300
2023-06-19T13:19:43.991Z,5.900
2023-06-19T13:20:44.449Z,5.400
2023-06-19T13:21:44.212Z,5.600
2023-06-19T13:22:43.860Z,6.100
2023-06-19T13:23:44.350Z,5.500
2023-06-19T13:24:44.278Z,5.500
2023-06-19T13:25:44.092Z,5.300
2023-06-19T13:27:44.250Z,5.600
2023-06-19T13:28:43.832Z,5.800
2023-06-19T13:29:44.295Z,5.600
2023-06-19T13:30:43.892Z,5.800
2023-06-19T13:31:44.326Z,6.200
2023-06-19T13:32:44.139Z,5.400
2023-06-19T13:33:43.794Z,6.100
2023-06-19T13:34:44.327Z,5.800
2023-06-19T13:35:43.951Z,5.700
2023-06-19T13:36:44.395Z,6.200
2023-06-19T13:37:45.024Z,6.200
2023-06-19T13:38:45.313Z,6.200
2023-06-19T13:40:43.540Z,6.400
2023-06-19T13:41:44.235Z,5.600
2023-06-19T13:42:43.702Z,5.900
2023-06-19T13:43:44.236Z,5.900
2023-06-19T13:44:43.693Z,5.600
2023-06-19T13:45:45.661Z,6.200
2023-06-19T13:47:44.620Z,6.100
2023-06-19T13:48:44.251Z,6.600